createdAt,value
2023-04-16T00:02:03.834Z,0
2023-04-16T00:07:23.499Z,0
2023-04-16T00:12:43.073Z,0
2023-04-16T00:18:01.959Z,0
2023-04-16T00:23:21.622Z,0
2023-04-16T00:34:01.047Z,0
2023-04-16T00:44:39.259Z,0
2023-04-16T00:49:58.687Z,0
2023-04-16T00:55:18.149Z,0
2023-04-16T01:00:37.879Z,0
2023-04-16T01:05:57.368Z,0
2023-04-16T01:11:17.087Z,0
2023-04-16T01:16:36.596Z,0
2023-04-16T01:27:15.040Z,0
2023-04-16T01:32:34.053Z,0
2023-04-16T01:37:53.339Z,0
2023-04-16T01:43:12.784Z,0
2023-04-16T01:48:32.426Z,0
2023-04-16T01:53:51.791Z,0
2023-04-16T01:59:11.095Z,0
2023-04-16T02:09:49.230Z,0
2023-04-16T02:15:08.247Z,0
2023-04-16T02:20:27.544Z,0
2023-04-16T02:25:46.735Z,0
2023-04-16T02:31:06.381Z,0
2023-04-16T02:36:26.205Z,0
2023-04-16T02:41:45.760Z,0
2023-04-16T02:47:04.525Z,0
2023-04-16T02:52:24.294Z,0
2023-04-16T02:57:43.834Z,0
2023-04-16T03:03:02.959Z,0
2023-04-16T03:08:21.944Z,0
2023-04-16T03:13:41.111Z,0
2023-04-16T03:19:00.370Z,0
2023-04-16T03:24:19.771Z,0
2023-04-16T03:29:39.328Z,0
2023-04-16T03:34:58.837Z,0
2023-04-16T03:40:18.095Z,0
2023-04-16T03:50:55.945Z,0
2023-04-16T03:56:15.612Z,0
2023-04-16T04:01:34.973Z,0
2023-04-16T04:06:54.487Z,0
2023-04-16T04:12:13.359Z,0
2023-04-16T04:17:32.253Z,0
2023-04-16T04:22:51.029Z,0
2023-04-16T04:28:10.223Z,0
2023-04-16T04:33:29.936Z,0
2023-04-16T04:38:49.240Z,3
2023-04-16T04:44:08.253Z,6
2023-04-16T04:49:27.975Z,11
2023-04-16T04:54:47.201Z,13.78
2023-04-16T05:00:06.601Z,16.34
2023-04-16T05:05:26.039Z,20.34
2023-04-16T05:10:44.822Z,21.68
2023-04-16T05:16:04.277Z,20.58
2023-04-16T05:21:23.560Z,22.49
2023-04-16T05:32:02.151Z,28.21
2023-04-16T05:37:21.265Z,27.88
2023-04-16T05:42:40.914Z,31.05
2023-04-16T05:47:59.893Z,34.3
2023-04-16T05:53:18.816Z,35.77
2023-04-16T05:58:37.783Z,37.23
2023-04-16T06:03:57.422Z,46.11
2023-04-16T06:14:35.794Z,36.45
2023-04-16T06:25:15.703Z,33.09
2023-04-16T06:30:33.998Z,36.21
2023-04-16T06:35:52.931Z,33.82
2023-04-16T06:41:12.328Z,33.02
2023-04-16T06:46:31.115Z,32.69
2023-04-16T06:51:50.747Z,40.36
2023-04-16T06:57:09.465Z,35.76
2023-04-16T07:02:28.729Z,31.01
2023-04-16T07:07:47.733Z,41.85
2023-04-16T07:13:06.745Z,53.15
2023-04-16T07:18:25.597Z,59.12
2023-04-16T07:23:44.980Z,58.81
2023-04-16T07:29:04.040Z,90.06
2023-04-16T07:34:23.630Z,95.59
2023-04-16T07:39:42.388Z,98.16
2023-04-16T07:45:01.474Z,106.21
2023-04-16T07:50:21.057Z,90.06
2023-04-16T07:55:40.175Z,69.73
2023-04-16T08:00:59.312Z,63.78
2023-04-16T08:06:18.933Z,78.61
2023-04-16T08:11:37.660Z,70.86
2023-04-16T08:16:56.965Z,74.8
2023-04-16T08:17:21.365Z,81.5
2023-04-16T08:22:40.366Z,87.7
2023-04-16T08:33:19.117Z,80.72
2023-04-16T08:38:38.513Z,82.03
2023-04-16T08:43:57.957Z,116.21
2023-04-16T08:49:16.946Z,136.54
2023-04-16T08:54:35.873Z,83.85
2023-04-16T08:59:54.755Z,68.57
2023-04-16T09:05:13.876Z,84.53
2023-04-16T09:10:33.310Z,93.59
2023-04-16T09:15:52.260Z,84.81
2023-04-16T09:21:11.395Z,79.25
2023-04-16T09:26:30.668Z,72.61
2023-04-16T09:31:49.866Z,84.73
2023-04-16T09:37:09.372Z,98.7
2023-04-16T09:42:28.867Z,114.75
2023-04-16T09:47:48.468Z,101.82
2023-04-16T09:53:07.980Z,130.65
2023-04-16T09:58:27.032Z,104.1
2023-04-16T10:03:45.969Z,91.81
2023-04-16T10:09:05.040Z,98.46
2023-04-16T10:14:24.228Z,82.98
2023-04-16T10:19:43.630Z,83.14
2023-04-16T10:25:03.004Z,69.17
2023-04-16T10:30:22.700Z,71.12
2023-04-16T10:35:41.912Z,82.18
2023-04-16T10:41:01.062Z,101.17
2023-04-16T10:46:20.269Z,88.74
2023-04-16T10:51:39.257Z,111.85
2023-04-16T10:56:58.430Z,89.99
2023-04-16T11:02:18.111Z,83.66
2023-04-16T11:07:36.728Z,111.88
2023-04-16T11:12:56.301Z,102.29
2023-04-16T11:18:15.202Z,87.29
2023-04-16T11:23:34.469Z,142.91
2023-04-16T11:28:53.718Z,106.72
2023-04-16T11:34:12.677Z,120.57
2023-04-16T11:39:31.549Z,138.56
2023-04-16T11:44:51.083Z,128.73
2023-04-16T11:50:10.260Z,132.05
2023-04-16T11:55:29.488Z,103.07
2023-04-16T12:00:48.594Z,141.13
2023-04-16T12:06:07.373Z,143.57
2023-04-16T12:11:26.823Z,140.42
2023-04-16T12:16:45.947Z,167.66
2023-04-16T12:22:04.675Z,149.91
2023-04-16T12:27:24.280Z,248.03
2023-04-16T12:32:43.820Z,191.51
2023-04-16T12:38:02.624Z,316.49
2023-04-16T12:43:22.260Z,255.25
2023-04-16T12:54:00.260Z,132.51
2023-04-16T12:59:19.777Z,108.92
2023-04-16T13:04:38.774Z,103.78
2023-04-16T13:09:57.479Z,141.77
2023-04-16T13:15:16.554Z,185.16
2023-04-16T13:20:35.463Z,188.94
2023-04-16T13:25:54.577Z,161.93
2023-04-16T13:31:13.874Z,108.7
2023-04-16T13:36:33.581Z,94.63
2023-04-16T13:41:52.573Z,82.98
2023-04-16T13:52:31.663Z,64.81
2023-04-16T13:57:51.249Z,95.66
2023-04-16T14:03:10.180Z,99.59
2023-04-16T14:13:48.340Z,65.42
2023-04-16T14:19:07.614Z,72.24
2023-04-16T14:29:46.484Z,94.76
2023-04-16T14:35:05.240Z,72.44
2023-04-16T14:40:24.867Z,64.91
2023-04-16T14:45:43.892Z,61.61
2023-04-16T14:51:03.469Z,61.75
2023-04-16T14:56:22.661Z,59.85
2023-04-16T15:01:41.761Z,73.04
2023-04-16T15:07:01.162Z,100.59
2023-04-16T15:12:20.877Z,77.14
2023-04-16T15:17:40.293Z,73.61
2023-04-16T15:22:59.316Z,69.39
2023-04-16T15:28:18.190Z,69.54
2023-04-16T15:33:37.063Z,64.71
2023-04-16T15:38:56.431Z,59.42
2023-04-16T15:44:15.568Z,59.68
2023-04-16T15:49:34.860Z,59.89
2023-04-16T15:54:54.503Z,49.88
2023-04-16T16:00:14.139Z,46.05
2023-04-16T16:05:33.069Z,38.31
2023-04-16T16:10:52.224Z,40.13
2023-04-16T16:16:11.349Z,42.49
2023-04-16T16:21:30.446Z,41.16
2023-04-16T16:26:49.918Z,41.88
2023-04-16T16:32:09.420Z,38.34
2023-04-16T16:37:28.603Z,43.16
2023-04-16T16:42:48.164Z,47.75
2023-04-16T16:48:07.164Z,56.29
2023-04-16T16:53:26.764Z,62.03
2023-04-16T17:04:04.553Z,50.32
2023-04-16T17:09:23.185Z,37.4
2023-04-16T17:14:42.128Z,33.37
2023-04-16T17:20:01.602Z,33.57
2023-04-16T17:25:21.211Z,30.54
2023-04-16T17:30:40.744Z,30.27
2023-04-16T17:36:01.235Z,28.18
2023-04-16T17:41:18.891Z,27.52
2023-04-16T17:46:38.840Z,22.11
2023-04-16T17:51:57.538Z,21.73
2023-04-16T17:57:16.144Z,20.02
2023-04-16T18:02:35.984Z,21.34
2023-04-16T18:07:54.678Z,16.34
2023-04-16T18:13:14.190Z,12
2023-04-16T18:18:33.145Z,9
2023-04-16T18:29:13.242Z,0
2023-04-16T18:34:30.844Z,0
2023-04-16T18:39:50.351Z,0
2023-04-16T18:45:10.127Z,0
2023-04-16T18:50:29.762Z,0
2023-04-16T19:01:08.702Z,0
2023-04-16T19:06:27.834Z,0
2023-04-16T19:11:47.502Z,0
2023-04-16T19:17:07.007Z,0
2023-04-16T19:22:26.059Z,0
2023-04-16T19:27:45.710Z,0
2023-04-16T19:33:05.416Z,0
2023-04-16T19:38:24.616Z,0
2023-04-16T19:43:43.969Z,0
2023-04-16T19:49:03.242Z,0
2023-04-16T19:54:22.012Z,0
2023-04-16T19:59:41.628Z,0
2023-04-16T20:05:00.929Z,0
2023-04-16T20:10:20.436Z,0
2023-04-16T20:15:40.258Z,0
2023-04-16T20:26:18.413Z,0
2023-04-16T20:31:37.695Z,0
2023-04-16T20:36:57.220Z,0
2023-04-16T20:42:15.942Z,0
2023-04-16T20:47:35.288Z,0
2023-04-16T20:52:54.347Z,0
2023-04-16T20:58:13.022Z,0
2023-04-16T21:03:31.811Z,0
2023-04-16T21:08:51.351Z,0
2023-04-16T21:14:10.994Z,0
2023-04-16T21:19:30.503Z,0
2023-04-16T21:24:49.413Z,0
2023-04-16T21:30:08.365Z,0
2023-04-16T21:35:27.416Z,0
2023-04-16T21:40:46.630Z,0
2023-04-16T21:46:06.097Z,0
2023-04-16T21:51:24.834Z,0
2023-04-16T21:56:44.068Z,0
2023-04-16T22:02:02.803Z,0
2023-04-16T22:07:22.005Z,0
2023-04-16T22:18:00.543Z,0
2023-04-16T22:23:19.291Z,0
2023-04-16T22:28:38.667Z,0
2023-04-16T22:33:58.256Z,0
2023-04-16T22:39:17.414Z,0
2023-04-16T22:44:37.320Z,0
2023-04-16T22:49:55.889Z,0
2023-04-16T23:00:34.144Z,0
2023-04-16T23:05:52.924Z,0
2023-04-16T23:11:11.825Z,0
2023-04-16T23:16:30.378Z,0
2023-04-16T23:21:49.585Z,0
2023-04-16T23:27:08.784Z,0
2023-04-16T23:32:28.245Z,0
2023-04-16T23:37:47.201Z,0
2023-04-16T23:43:06.370Z,0
2023-04-16T23:48:34.308Z,0
2023-04-16T23:59:04.369Z,0
